createdAt,value
2019-03-23T00:01:42.001Z,10.97
2019-03-23T00:04:21.666Z,11.47
2019-03-23T00:07:01.752Z,10.63
2019-03-23T00:09:41.825Z,11.00
2019-03-23T00:12:21.924Z,10.73
2019-03-23T00:15:02.050Z,10.77
2019-03-23T00:17:42.426Z,10.30
2019-03-23T00:20:22.469Z,10.77
2019-03-23T00:23:02.497Z,10.90
2019-03-23T00:25:42.557Z,9.60
2019-03-23T00:28:22.468Z,11.17
2019-03-23T00:31:02.392Z,10.07
2019-03-23T00:33:42.496Z,11.17
2019-03-23T00:36:22.543Z,10.40
2019-03-23T00:39:02.652Z,9.47
2019-03-23T00:41:42.512Z,9.60
2019-03-23T00:44:22.566Z,9.77
2019-03-23T00:47:02.632Z,10.10
2019-03-23T00:49:42.624Z,8.50
2019-03-23T00:52:22.354Z,9.67
2019-03-23T00:55:02.393Z,9.13
2019-03-23T00:57:42.281Z,9.67
2019-03-23T01:00:22.568Z,9.67
2019-03-23T01:03:02.438Z,9.27
2019-03-23T01:05:42.360Z,9.53
2019-03-23T01:08:22.567Z,8.83
2019-03-23T01:11:02.458Z,9.67
2019-03-23T01:13:42.374Z,8.53
2019-03-23T01:16:22.668Z,8.57
2019-03-23T01:19:02.363Z,8.93
2019-03-23T01:21:42.462Z,9.30
2019-03-23T01:24:22.423Z,11.00
2019-03-23T01:27:02.517Z,9.03
2019-03-23T01:29:42.513Z,9.40
2019-03-23T01:32:22.682Z,7.87
2019-03-23T01:35:02.996Z,9.33
2019-03-23T01:37:42.903Z,8.23
2019-03-23T01:40:22.976Z,7.80
2019-03-23T01:43:02.957Z,7.63
2019-03-23T01:45:42.877Z,7.50
2019-03-23T01:48:22.874Z,7.53
2019-03-23T01:51:03.081Z,10.33
2019-03-23T01:53:43.121Z,9.47
2019-03-23T01:56:23.417Z,9.37
2019-03-23T01:59:03.674Z,8.97
2019-03-23T02:01:43.721Z,8.67
2019-03-23T02:04:23.819Z,9.00
2019-03-23T02:07:13.471Z,8.20
2019-03-23T02:09:46.110Z,9.17
2019-03-23T02:12:26.257Z,8.47
2019-03-23T02:15:06.277Z,8.50
2019-03-23T02:17:46.300Z,8.83
2019-03-23T02:20:26.076Z,9.03
2019-03-23T02:23:06.127Z,9.17
2019-03-23T02:25:46.045Z,9.50
2019-03-23T02:28:25.956Z,12.73
2019-03-23T02:31:07.266Z,14.10
2019-03-23T02:33:48.004Z,16.57
2019-03-23T02:36:27.950Z,19.03
2019-03-23T02:39:07.989Z,19.67
2019-03-23T02:41:47.941Z,23.80
2019-03-23T02:44:28.079Z,27.30
2019-03-23T02:47:07.992Z,26.97
2019-03-23T02:49:47.921Z,29.97
2019-03-23T02:52:28.123Z,32.43
2019-03-23T02:55:08.139Z,33.33
2019-03-23T02:57:47.920Z,37.93
2019-03-23T03:00:27.913Z,35.97
2019-03-23T03:03:07.924Z,38.47
2019-03-23T03:05:48.029Z,39.13
2019-03-23T03:08:28.160Z,39.63
2019-03-23T03:11:08.299Z,39.77
2019-03-23T03:13:48.279Z,42.13
2019-03-23T03:16:28.034Z,44.20
2019-03-23T03:19:08.095Z,40.60
2019-03-23T03:21:48.097Z,42.90
2019-03-23T03:24:28.144Z,46.70
2019-03-23T03:27:08.097Z,46.57
2019-03-23T03:29:48.112Z,51.87
2019-03-23T03:32:28.250Z,55.27
2019-03-23T03:35:08.238Z,53.73
2019-03-23T03:37:56.448Z,52.17
2019-03-23T03:40:30.319Z,50.90
2019-03-23T03:43:10.589Z,53.63
2019-03-23T03:45:50.809Z,54.23
2019-03-23T03:48:30.834Z,53.43
2019-03-23T03:51:10.726Z,51.33
2019-03-23T03:53:50.737Z,49.33
2019-03-23T03:56:30.820Z,50.97
2019-03-23T03:59:11.026Z,48.97
2019-03-23T04:01:50.832Z,50.97
2019-03-23T04:04:30.757Z,51.10
2019-03-23T04:07:10.821Z,50.87
2019-03-23T04:09:50.844Z,50.10
2019-03-23T04:12:30.853Z,50.67
2019-03-23T04:15:10.814Z,47.20
2019-03-23T04:17:50.860Z,49.87
2019-03-23T04:20:31.067Z,49.27
2019-03-23T04:23:11.200Z,47.17
2019-03-23T04:25:51.294Z,44.53
2019-03-23T04:28:31.394Z,44.27
2019-03-23T04:31:11.211Z,43.07
2019-03-23T04:33:51.247Z,43.30
2019-03-23T04:36:31.465Z,43.57
2019-03-23T04:39:11.685Z,42.20
2019-03-23T04:41:51.538Z,44.20
2019-03-23T04:44:31.369Z,42.63
2019-03-23T04:47:11.299Z,40.53
2019-03-23T04:49:51.354Z,41.53
2019-03-23T04:52:31.620Z,43.30
2019-03-23T04:55:11.724Z,43.47
2019-03-23T04:57:51.619Z,42.47
2019-03-23T05:00:31.592Z,39.23
2019-03-23T05:03:11.643Z,37.90
2019-03-23T05:05:51.665Z,37.17
2019-03-23T05:08:33.530Z,38.00
2019-03-23T05:11:13.452Z,34.03
2019-03-23T05:13:53.599Z,36.50
2019-03-23T05:16:33.576Z,37.30
2019-03-23T05:19:13.494Z,37.17
2019-03-23T05:21:53.450Z,37.20
2019-03-23T05:24:33.755Z,36.93
2019-03-23T05:27:13.809Z,38.23
2019-03-23T05:29:54.175Z,37.27
2019-03-23T05:32:34.053Z,35.90
2019-03-23T05:35:14.147Z,36.13
2019-03-23T05:37:54.148Z,37.33
2019-03-23T05:40:34.071Z,36.03
2019-03-23T05:43:14.066Z,37.23
2019-03-23T05:45:54.165Z,36.13
2019-03-23T05:48:34.451Z,36.37
2019-03-23T05:51:14.465Z,36.47
2019-03-23T05:53:54.429Z,37.43
2019-03-23T05:56:34.489Z,36.23
2019-03-23T05:59:14.510Z,36.77
2019-03-23T06:01:54.466Z,35.87
2019-03-23T06:04:34.385Z,37.30
2019-03-23T06:07:14.352Z,38.93
2019-03-23T06:09:54.228Z,37.03
2019-03-23T06:12:34.415Z,35.00
2019-03-23T06:15:14.476Z,35.53
2019-03-23T06:17:54.418Z,38.33
2019-03-23T06:20:34.407Z,35.00
2019-03-23T06:23:14.402Z,37.20
2019-03-23T06:25:54.427Z,35.73
2019-03-23T06:28:34.515Z,40.00
2019-03-23T06:31:14.631Z,37.70
2019-03-23T06:33:54.774Z,37.50
2019-03-23T06:36:34.639Z,34.03
2019-03-23T06:39:14.896Z,38.17
2019-03-23T06:41:54.938Z,37.60
2019-03-23T06:44:35.226Z,39.93
2019-03-23T06:47:15.532Z,35.60
2019-03-23T06:49:55.585Z,38.07
2019-03-23T06:52:35.740Z,35.23
2019-03-23T06:55:15.745Z,37.40
2019-03-23T06:57:56.224Z,36.83
2019-03-23T07:00:36.780Z,41.40
2019-03-23T07:03:16.875Z,37.00
2019-03-23T07:05:56.776Z,39.07
2019-03-23T07:08:36.801Z,38.07
2019-03-23T07:11:16.783Z,38.50
2019-03-23T07:13:57.028Z,38.03
2019-03-23T07:16:37.202Z,39.20
2019-03-23T07:19:17.357Z,37.90
2019-03-23T07:21:57.446Z,39.17
2019-03-23T07:24:37.408Z,40.23
2019-03-23T07:27:17.529Z,40.20
2019-03-23T07:29:57.424Z,39.10
2019-03-23T07:32:37.684Z,39.97
2019-03-23T07:35:17.755Z,40.03
2019-03-23T07:37:57.729Z,41.57
2019-03-23T07:40:38.496Z,40.43
2019-03-23T07:43:18.357Z,41.13
2019-03-23T07:45:58.298Z,39.27
2019-03-23T07:48:38.392Z,39.00
2019-03-23T07:51:18.235Z,38.67
2019-03-23T07:53:58.269Z,38.37
2019-03-23T07:56:38.365Z,37.40
2019-03-23T07:59:18.441Z,39.47
2019-03-23T08:01:58.609Z,40.43
2019-03-23T08:04:38.372Z,38.73
2019-03-23T08:07:18.259Z,39.80
2019-03-23T08:09:58.379Z,41.03
2019-03-23T08:12:38.275Z,37.70
2019-03-23T08:15:18.475Z,36.77
2019-03-23T08:17:58.566Z,37.67
2019-03-23T08:20:38.628Z,37.77
2019-03-23T08:23:18.626Z,34.50
2019-03-23T08:25:58.596Z,33.93
2019-03-23T08:28:38.596Z,34.47
2019-03-23T08:31:18.451Z,33.47
2019-03-23T08:33:58.351Z,35.67
2019-03-23T08:36:38.395Z,32.93
2019-03-23T08:39:18.335Z,30.53
2019-03-23T08:41:58.667Z,31.33
2019-03-23T08:44:38.532Z,32.20
2019-03-23T08:47:18.697Z,31.73
2019-03-23T08:49:59.645Z,33.07
2019-03-23T08:52:40.157Z,32.13
2019-03-23T08:55:19.689Z,30.17
2019-03-23T08:57:59.717Z,30.47
2019-03-23T09:00:39.465Z,31.00
2019-03-23T09:03:19.561Z,29.33
2019-03-23T09:05:59.518Z,27.23
2019-03-23T09:08:39.617Z,30.90
2019-03-23T09:11:20.690Z,30.50
2019-03-23T09:14:00.680Z,29.87
2019-03-23T09:16:40.701Z,29.13
2019-03-23T09:19:20.879Z,29.67
2019-03-23T09:22:00.757Z,30.00
2019-03-23T09:24:40.927Z,31.03
2019-03-23T09:27:20.919Z,29.90
2019-03-23T09:30:00.986Z,30.07
2019-03-23T09:32:41.176Z,30.50
2019-03-23T09:35:21.042Z,28.47
2019-03-23T09:38:01.012Z,29.00
2019-03-23T09:40:40.961Z,29.07
2019-03-23T09:43:20.955Z,29.03
2019-03-23T09:46:01.071Z,28.27
2019-03-23T09:48:41.090Z,31.63
2019-03-23T09:51:21.098Z,30.63
2019-03-23T09:54:01.208Z,28.73
2019-03-23T09:56:41.567Z,30.77
2019-03-23T09:59:21.577Z,29.97
2019-03-23T10:02:01.725Z,29.47
2019-03-23T10:04:41.572Z,29.23
2019-03-23T10:07:21.438Z,29.60
2019-03-23T10:10:01.494Z,30.23
2019-03-23T10:12:41.505Z,30.50
2019-03-23T10:15:21.679Z,30.93
2019-03-23T10:18:01.958Z,30.90
2019-03-23T10:20:41.936Z,29.67
2019-03-23T10:23:22.065Z,29.53
2019-03-23T10:26:02.400Z,28.67
2019-03-23T10:28:42.228Z,29.77
2019-03-23T10:31:22.225Z,31.70
2019-03-23T10:34:02.336Z,30.20
2019-03-23T10:36:42.419Z,28.77
2019-03-23T10:39:22.485Z,29.87
2019-03-23T10:42:02.532Z,29.77
2019-03-23T10:44:42.441Z,28.03
2019-03-23T10:47:22.403Z,28.53
2019-03-23T10:50:02.332Z,30.23
2019-03-23T10:52:42.437Z,30.13
2019-03-23T10:55:22.716Z,29.83
2019-03-23T10:58:02.558Z,27.63
2019-03-23T11:00:43.361Z,29.27
2019-03-23T11:03:23.910Z,29.20
2019-03-23T11:06:04.031Z,28.97
2019-03-23T11:08:44.030Z,29.53
2019-03-23T11:11:23.902Z,30.33
2019-03-23T11:14:03.843Z,31.10
2019-03-23T11:16:43.836Z,30.03
2019-03-23T11:19:23.768Z,29.43
2019-03-23T11:22:03.766Z,29.93
2019-03-23T11:24:43.640Z,29.60
2019-03-23T11:27:23.711Z,31.83
2019-03-23T11:30:03.693Z,29.50
2019-03-23T11:32:43.636Z,30.33
2019-03-23T11:35:23.551Z,30.03
2019-03-23T11:38:03.695Z,30.47
2019-03-23T11:40:52.720Z,27.97
2019-03-23T11:43:25.804Z,30.83
2019-03-23T11:46:05.941Z,31.57
2019-03-23T11:48:45.816Z,30.83
2019-03-23T11:51:25.906Z,28.73
2019-03-23T11:54:05.887Z,30.13
2019-03-23T11:56:45.781Z,30.20
2019-03-23T11:59:25.723Z,29.73
2019-03-23T12:02:05.947Z,29.13
2019-03-23T12:04:45.603Z,30.17
2019-03-23T12:07:25.866Z,30.70
2019-03-23T12:10:05.788Z,29.77
2019-03-23T12:12:45.934Z,29.93
2019-03-23T12:15:25.755Z,30.17
2019-03-23T12:18:05.618Z,29.90
2019-03-23T12:20:45.892Z,29.73
2019-03-23T12:23:25.680Z,29.33
2019-03-23T12:26:05.897Z,30.53
2019-03-23T12:28:45.801Z,29.53
2019-03-23T12:31:25.860Z,29.73
2019-03-23T12:34:06.042Z,26.93
2019-03-23T12:36:45.930Z,28.03
2019-03-23T12:39:26.087Z,26.97
2019-03-23T12:42:05.927Z,28.30
2019-03-23T12:44:46.017Z,29.03
2019-03-23T12:47:26.009Z,25.73
2019-03-23T12:50:06.380Z,24.87
2019-03-23T12:52:46.265Z,26.50
2019-03-23T12:55:26.260Z,27.23
2019-03-23T12:58:06.432Z,26.83
2019-03-23T13:00:46.394Z,26.33
2019-03-23T13:03:26.435Z,26.73
2019-03-23T13:06:06.300Z,27.40
2019-03-23T13:08:46.342Z,27.50
2019-03-23T13:11:34.940Z,27.07
2019-03-23T13:14:08.240Z,27.57
2019-03-23T13:16:48.447Z,27.50
2019-03-23T13:19:28.321Z,25.53
2019-03-23T13:22:08.283Z,25.13
2019-03-23T13:24:48.255Z,25.47
2019-03-23T13:27:28.534Z,25.87
2019-03-23T13:30:08.609Z,26.53
2019-03-23T13:32:48.635Z,26.07
2019-03-23T13:35:28.549Z,25.13
2019-03-23T13:38:08.439Z,24.37
2019-03-23T13:40:48.549Z,26.57
2019-03-23T13:43:28.767Z,27.53
2019-03-23T13:46:08.563Z,26.17
2019-03-23T13:48:48.366Z,27.13
2019-03-23T13:51:28.278Z,25.63
2019-03-23T13:54:08.296Z,25.73
2019-03-23T13:56:48.493Z,26.23
2019-03-23T13:59:28.875Z,25.10
2019-03-23T14:02:08.715Z,25.37
2019-03-23T14:04:50.305Z,25.07
2019-03-23T14:07:30.840Z,26.90
2019-03-23T14:10:10.959Z,26.00
2019-03-23T14:12:50.908Z,26.27
2019-03-23T14:15:30.924Z,25.53
2019-03-23T14:18:10.842Z,26.53
2019-03-23T14:20:50.864Z,25.30
2019-03-23T14:23:30.860Z,24.30
2019-03-23T14:26:10.771Z,26.30
2019-03-23T14:28:50.840Z,26.67
2019-03-23T14:31:30.897Z,25.33
2019-03-23T14:34:10.951Z,24.43
2019-03-23T14:36:51.005Z,26.57
2019-03-23T14:39:31.251Z,26.07
2019-03-23T14:42:11.098Z,26.23
2019-03-23T14:44:51.167Z,27.50
2019-03-23T14:47:31.349Z,27.63
2019-03-23T14:50:11.485Z,26.97
2019-03-23T14:52:51.553Z,26.80
2019-03-23T14:55:31.521Z,26.83
2019-03-23T14:58:11.389Z,27.07
2019-03-23T15:00:51.482Z,28.67
2019-03-23T15:03:31.428Z,29.07
2019-03-23T15:06:11.468Z,29.23
2019-03-23T15:08:51.505Z,28.37
2019-03-23T15:11:31.608Z,27.50
2019-03-23T15:14:11.775Z,27.70
2019-03-23T15:16:51.588Z,29.37
2019-03-23T15:19:31.596Z,30.03
2019-03-23T15:22:11.403Z,27.67
2019-03-23T15:24:51.443Z,31.47
2019-03-23T15:27:31.405Z,29.17
2019-03-23T15:30:11.383Z,29.30
2019-03-23T15:32:51.271Z,31.20
2019-03-23T15:35:31.304Z,30.93
2019-03-23T15:38:12.997Z,31.20
2019-03-23T15:40:53.604Z,31.87
2019-03-23T15:43:33.745Z,32.20
2019-03-23T15:46:13.805Z,31.93
2019-03-23T15:48:53.577Z,33.67
2019-03-23T15:51:33.420Z,32.83
2019-03-23T15:54:13.361Z,30.30
2019-03-23T15:56:53.667Z,32.87
2019-03-23T15:59:33.713Z,32.63
2019-03-23T16:02:13.700Z,34.43
2019-03-23T16:04:53.709Z,32.50
2019-03-23T16:07:33.525Z,33.77
2019-03-23T16:10:13.568Z,33.60
2019-03-23T16:12:53.300Z,33.47
2019-03-23T16:15:33.449Z,35.77
2019-03-23T16:18:13.296Z,33.33
2019-03-23T16:20:53.149Z,33.20
2019-03-23T16:23:33.198Z,34.57
2019-03-23T16:26:13.100Z,31.87
2019-03-23T16:28:53.206Z,29.27
2019-03-23T16:31:33.099Z,32.00
2019-03-23T16:34:13.184Z,36.30
2019-03-23T16:36:53.342Z,34.13
2019-03-23T16:39:33.214Z,33.30
2019-03-23T16:42:13.311Z,32.17
2019-03-23T16:44:53.252Z,32.03
2019-03-23T16:47:33.252Z,30.90
2019-03-23T16:50:13.229Z,28.97
2019-03-23T16:52:53.315Z,27.23
2019-03-23T16:55:33.444Z,30.03
2019-03-23T16:58:16.404Z,28.50
2019-03-23T17:00:55.407Z,26.70
2019-03-23T17:03:35.353Z,28.70
2019-03-23T17:06:15.424Z,27.47
2019-03-23T17:08:55.490Z,27.77
2019-03-23T17:11:35.679Z,27.37
2019-03-23T17:14:15.617Z,26.77
2019-03-23T17:16:55.596Z,21.93
2019-03-23T17:19:35.683Z,21.33
2019-03-23T17:22:15.645Z,19.20
2019-03-23T17:24:55.669Z,18.80
2019-03-23T17:27:35.648Z,16.93
2019-03-23T17:30:15.626Z,17.70
2019-03-23T17:32:55.528Z,17.77
2019-03-23T17:35:35.498Z,16.17
2019-03-23T17:38:15.384Z,16.10
2019-03-23T17:40:55.516Z,15.90
2019-03-23T17:43:35.548Z,16.50
2019-03-23T17:46:15.831Z,15.57
2019-03-23T17:48:55.665Z,14.17
2019-03-23T17:51:35.846Z,14.63
2019-03-23T17:54:15.937Z,15.23
2019-03-23T17:56:55.994Z,13.90
2019-03-23T17:59:36.032Z,13.07
2019-03-23T18:02:16.188Z,14.10
2019-03-23T18:04:56.281Z,15.47
2019-03-23T18:07:36.297Z,14.50
2019-03-23T18:10:16.179Z,14.70
2019-03-23T18:12:55.948Z,12.90
2019-03-23T18:15:35.981Z,13.53
2019-03-23T18:18:16.025Z,13.00
2019-03-23T18:20:56.084Z,13.20
2019-03-23T18:23:36.121Z,11.73
2019-03-23T18:26:16.043Z,12.47
2019-03-23T18:28:56.103Z,12.23
2019-03-23T18:31:36.123Z,11.43
2019-03-23T18:34:16.141Z,11.23
2019-03-23T18:36:55.930Z,11.53
2019-03-23T18:39:35.837Z,12.17
2019-03-23T18:42:16.011Z,11.47
2019-03-23T18:44:56.020Z,11.73
2019-03-23T18:47:35.984Z,12.23
2019-03-23T18:50:15.882Z,11.10
2019-03-23T18:52:55.930Z,12.23
2019-03-23T18:55:36.062Z,11.90
2019-03-23T18:58:16.048Z,11.97
2019-03-23T19:00:56.100Z,13.23
2019-03-23T19:03:36.110Z,12.50
2019-03-23T19:06:15.832Z,19.37
2019-03-23T19:08:55.731Z,20.97
2019-03-23T19:11:35.865Z,21.50
2019-03-23T19:14:16.074Z,15.83
2019-03-23T19:16:57.178Z,14.13
2019-03-23T19:19:37.154Z,13.07
2019-03-23T19:22:17.297Z,12.13
2019-03-23T19:24:57.194Z,13.60
2019-03-23T19:27:37.512Z,11.40
2019-03-23T19:30:17.235Z,12.17
2019-03-23T19:32:57.338Z,11.93
2019-03-23T19:35:37.186Z,11.40
2019-03-23T19:38:18.216Z,10.47
2019-03-23T19:40:58.395Z,10.17
2019-03-23T19:43:48.036Z,10.87
2019-03-23T19:46:20.352Z,10.30
2019-03-23T19:49:00.549Z,9.93
2019-03-23T19:51:40.560Z,10.27
2019-03-23T19:54:20.550Z,9.80
2019-03-23T19:57:00.609Z,8.20
2019-03-23T19:59:40.603Z,8.10
2019-03-23T20:02:21.104Z,9.27
2019-03-23T20:05:00.896Z,6.93
2019-03-23T20:07:40.888Z,7.47
2019-03-23T20:10:20.835Z,6.93
2019-03-23T20:13:01.002Z,5.40
2019-03-23T20:15:40.916Z,6.27
2019-03-23T20:18:21.010Z,5.37
2019-03-23T20:21:00.820Z,5.00
2019-03-23T20:23:41.005Z,4.47
2019-03-23T20:26:20.997Z,4.37
2019-03-23T20:29:00.904Z,4.83
2019-03-23T20:31:41.013Z,5.47
2019-03-23T20:34:22.067Z,5.00
2019-03-23T20:37:01.859Z,4.73
2019-03-23T20:39:42.117Z,4.60
2019-03-23T20:42:21.948Z,4.20
2019-03-23T20:45:02.171Z,4.47
2019-03-23T20:47:42.231Z,4.70
2019-03-23T20:50:22.278Z,4.80
2019-03-23T20:53:02.346Z,4.33
2019-03-23T20:55:42.220Z,4.70
2019-03-23T20:58:22.227Z,5.37
2019-03-23T21:01:02.308Z,5.43
2019-03-23T21:03:42.414Z,5.60
2019-03-23T21:06:22.194Z,4.67
2019-03-23T21:09:03.107Z,5.20
2019-03-23T21:11:43.305Z,5.17
2019-03-23T21:14:23.267Z,5.10
2019-03-23T21:17:03.283Z,6.00
2019-03-23T21:19:43.138Z,5.13
2019-03-23T21:22:23.186Z,6.17
2019-03-23T21:25:02.998Z,5.40
2019-03-23T21:27:42.896Z,5.23
2019-03-23T21:30:22.888Z,5.57
2019-03-23T21:33:02.935Z,5.30
2019-03-23T21:35:42.588Z,6.53
2019-03-23T21:38:22.708Z,5.97
2019-03-23T21:41:02.954Z,6.73
2019-03-23T21:43:42.810Z,5.57
2019-03-23T21:46:22.919Z,5.97
2019-03-23T21:49:02.963Z,6.10
2019-03-23T21:51:42.840Z,5.67
2019-03-23T21:54:23.019Z,5.20
2019-03-23T21:57:02.977Z,4.40
2019-03-23T21:59:42.955Z,5.13
2019-03-23T22:02:22.896Z,4.17
2019-03-23T22:05:02.657Z,5.37
2019-03-23T22:07:42.649Z,5.13
2019-03-23T22:10:22.509Z,4.53
2019-03-23T22:13:02.161Z,4.47
2019-03-23T22:15:42.217Z,5.07
2019-03-23T22:18:22.234Z,4.37
2019-03-23T22:21:02.007Z,4.37
2019-03-23T22:23:42.002Z,3.43
2019-03-23T22:26:22.066Z,4.00
2019-03-23T22:29:02.113Z,4.13
2019-03-23T22:31:42.078Z,4.17
2019-03-23T22:34:22.213Z,4.07
2019-03-23T22:37:02.215Z,3.60
2019-03-23T22:39:42.247Z,4.47
2019-03-23T22:42:22.297Z,3.97
2019-03-23T22:45:02.278Z,4.27
2019-03-23T22:47:42.435Z,3.70
2019-03-23T22:50:22.528Z,4.33
2019-03-23T22:53:02.464Z,4.13
2019-03-23T22:55:42.587Z,5.13
2019-03-23T22:58:22.697Z,4.67
2019-03-23T23:01:02.778Z,3.73
2019-03-23T23:03:42.700Z,4.03
2019-03-23T23:06:22.552Z,5.13
2019-03-23T23:09:03.057Z,6.10
2019-03-23T23:11:42.652Z,5.83
2019-03-23T23:14:22.807Z,5.50
2019-03-23T23:17:03.081Z,8.50
2019-03-23T23:19:43.015Z,9.63
2019-03-23T23:22:23.108Z,7.77
2019-03-23T23:25:03.061Z,6.97
2019-03-23T23:27:42.841Z,6.10
2019-03-23T23:30:22.913Z,6.43
2019-03-23T23:33:02.950Z,6.10
2019-03-23T23:35:42.980Z,5.50
2019-03-23T23:38:22.808Z,5.07
2019-03-23T23:41:02.930Z,5.33
2019-03-23T23:43:42.977Z,4.60
2019-03-23T23:46:23.209Z,5.20
2019-03-23T23:49:03.202Z,4.60
2019-03-23T23:51:50.002Z,6.20
2019-03-23T23:54:25.108Z,5.97
2019-03-23T23:57:05.197Z,5.40
2019-03-23T23:59:45.491Z,5.33
